Romoe Maersk — OXLC2 — position and weather

sailwx.info

Track history (hours):
 
Tides and Currents Weather Stations Pressure Air Temp Water Temp Dewpoint Dewpoint Depression Visibility Wind Speed Wind Dir Waves Ship Positions

Romoe Maersk

Last reported at 2015-Feb-22 06:33 UTC. Time now 2015-Mar-06 20:14 UTC.
Position N 50°45' W 005°41'.
Warning: this ship's position is 12 days out of date.

Length 171 m; draft 6.5 m.

Type: Ship. MMSI: 220209000.

Date/timePositionNaut miles runAvg speedWind from/ knotsBaromVisibWave heightAir tempDewpointWater temp
2015-Feb-22 06:33N 50°45' W 005°41'1514.2
2015-Feb-22 05:32N 50°31' W 005°48'141 9.2
2015-Feb-21 14:19N 50°08' W 002°10'3712.3
2015-Feb-21 11:19N 50°17' W 001°15'14 8.0
2015-Feb-21 09:33N 50°21' W 000°53'9 8.6
2015-Feb-21 08:33N 50°24' W 000°40'1110.7
2015-Feb-21 07:33N 50°27' W 000°25'1713.1
2015-Feb-21 06:16N 50°32' E 000°01'1014.1
2015-Feb-21 05:33N 50°35' E 000°16'1414.2
2015-Feb-21 04:33N 50°40' E 000°37'1313.3
2015-Feb-21 03:33N 50°48' E 000°54'1211.9
2015-Feb-21 02:33N 50°55' E 001°09'1010.3
2015-Feb-21 01:34N 51°01' E 001°21'1010.1
2015-Feb-21 00:33N 51°08' E 001°34'1211.8
2015-Feb-20 23:33N 51°16' E 001°47'1514.9
2015-Feb-20 22:34N 51°29' E 001°59'1615.7
2015-Feb-20 21:34N 51°41' E 002°15'52 8.1
2015-Feb-20 15:07N 52°11' E 003°25'711.7
2015-Feb-20 14:29N 52°07' E 003°36'1011.0
2015-Feb-20 13:33N 52°04' E 003°52'10 9.7
2015-Feb-20 12:33N 51°59' E 004°05'6 5.9
2015-Feb-20 11:33N 51°55' E 004°12'0 0.0
2015-Feb-20 10:30N 51°55' E 004°12'0 0.0
2015-Feb-20 09:24N 51°55' E 004°12'0 0.0
2015-Feb-20 08:30N 51°55' E 004°12'0 0.0
2015-Feb-20 07:33N 51°55' E 004°12'0 0.0
2015-Feb-20 06:33N 51°55' E 004°12'0 0.0
2015-Feb-20 05:33N 51°55' E 004°12'0 0.0
2015-Feb-20 04:30N 51°55' E 004°12'0 0.0
2015-Feb-20 03:33N 51°55' E 004°12'0 0.0
2015-Feb-20 02:30N 51°55' E 004°12'0 0.0
2015-Feb-20 01:30N 51°55' E 004°12'0 0.0
2015-Feb-20 00:33N 51°55' E 004°12'0 0.0
2015-Feb-19 23:33N 51°55' E 004°12'0 0.0
2015-Feb-19 22:33N 51°55' E 004°12'0 0.0
2015-Feb-19 21:33N 51°55' E 004°12'0 0.0
2015-Feb-19 20:33N 51°55' E 004°12'0 0.0
2015-Feb-19 19:33N 51°55' E 004°12'0 0.0
2015-Feb-19 18:33N 51°55' E 004°12'0 0.0
2015-Feb-19 17:33N 51°55' E 004°12'0 0.0
2015-Feb-19 16:15N 51°55' E 004°12'0 0.0
2015-Feb-19 15:30N 51°55' E 004°12'0 0.0
2015-Feb-19 14:33N 51°55' E 004°12'0 0.0
2015-Feb-19 13:27N 51°55' E 004°12'0 0.0
2015-Feb-19 12:33N 51°55' E 004°12'0 0.0
2015-Feb-19 11:27N 51°55' E 004°12'0 0.0
2015-Feb-19 10:30N 51°55' E 004°12'0 0.0
2015-Feb-19 09:30N 51°55' E 004°12'0 0.0
2015-Feb-19 08:33N 51°55' E 004°12'4 4.1
2015-Feb-19 07:33N 51°58' E 004°07'1010.2
2015-Feb-19 06:33N 51°60' E 003°51'1110.6
2015-Feb-19 05:33N 51°57' E 003°35'1211.6
2015-Feb-19 04:33N 51°56' E 003°16'4 3.7
2015-Feb-19 03:31N 51°56' E 003°10'0 0.1
2015-Feb-19 02:30N 51°56' E 003°10'0 0.1
2015-Feb-19 01:32N 51°56' E 003°10'0 0.0
2015-Feb-18 23:14N 51°56' E 003°10'0 0.2
2015-Feb-18 22:32N 51°56' E 003°09'0 0.0
2015-Feb-18 21:11N 51°56' E 003°09'0 0.0
2015-Feb-18 20:20N 51°56' E 003°09'0 0.1
2015-Feb-18 19:29N 51°56' E 003°09'0 0.1
2015-Feb-18 18:32N 51°56' E 003°09'0 0.2
2015-Feb-18 17:26N 51°56' E 003°10'0 0.0
2015-Feb-18 16:29N 51°56' E 003°10'0 0.0
2015-Feb-18 15:32N 51°56' E 003°10'0 0.1
2015-Feb-18 14:32N 51°56' E 003°10'0 0.0
2015-Feb-18 09:16N 51°56' E 003°09'0 0.0
2015-Feb-18 08:31N 51°56' E 003°09'0 0.0
2015-Feb-18 07:31N 51°56' E 003°09'0 0.1
2015-Feb-18 06:19N 51°56' E 003°10'0 0.2
2015-Feb-18 05:31N 51°56' E 003°09'0 0.1
2015-Feb-18 04:31N 51°56' E 003°10'0 0.0
2015-Feb-18 03:19N 51°56' E 003°10'0 0.0
2015-Feb-17 21:07N 51°56' E 003°10'0 0.0
2015-Feb-17 17:22N 51°56' E 003°09'0 0.0
2015-Feb-17 07:07N 51°56' E 003°10'0 0.0
2015-Feb-16 19:07N 51°56' E 003°10'26 3.0
2015-Feb-16 10:33N 51°42' E 002°33'1313.1
2015-Feb-16 09:33N 51°33' E 002°19'1212.2
2015-Feb-16 08:32N 51°23' E 002°08'1111.2
2015-Feb-16 07:33N 51°13' E 001°60'1312.5
2015-Feb-16 06:33N 51°06' E 001°43'1310.8
2015-Feb-16 05:22N 50°56' E 001°30'1211.0
2015-Feb-16 04:19N 50°45' E 001°25'910.8
2015-Feb-16 03:31N 50°38' E 001°16'1110.9
2015-Feb-16 02:33N 50°32' E 001°02'1110.8
2015-Feb-16 01:31N 50°28' E 000°46'255 6.2
2015-Feb-14 08:32N 47°17' W 003°31'  
Track history (hours):
 
Tides and Currents Weather Stations Pressure Air Temp Water Temp Dewpoint Dewpoint Depression Visibility Wind Speed Wind Dir Waves Ship Positions

Romoe Maersk

Last reported at 2015-Feb-22 06:33 UTC. Time now 2015-Mar-06 20:14 UTC.
Position N 50°45' W 005°41'.
Warning: this ship's position is 12 days out of date.

Length 171 m; draft 6.5 m.

Type: Ship. MMSI: 220209000.

Date/timePositionNaut miles runAvg speedWind from/ knotsBaromVisibWave heightAir tempDewpointWater temp
2015-Feb-22 06:33N 50°45' W 005°41'1514.2
2015-Feb-22 05:32N 50°31' W 005°48'141 9.2
2015-Feb-21 14:19N 50°08' W 002°10'3712.3
2015-Feb-21 11:19N 50°17' W 001°15'14 8.0
2015-Feb-21 09:33N 50°21' W 000°53'9 8.6
2015-Feb-21 08:33N 50°24' W 000°40'1110.7
2015-Feb-21 07:33N 50°27' W 000°25'1713.1
2015-Feb-21 06:16N 50°32' E 000°01'1014.1
2015-Feb-21 05:33N 50°35' E 000°16'1414.2
2015-Feb-21 04:33N 50°40' E 000°37'1313.3
2015-Feb-21 03:33N 50°48' E 000°54'1211.9
2015-Feb-21 02:33N 50°55' E 001°09'1010.3
2015-Feb-21 01:34N 51°01' E 001°21'1010.1
2015-Feb-21 00:33N 51°08' E 001°34'1211.8
2015-Feb-20 23:33N 51°16' E 001°47'1514.9
2015-Feb-20 22:34N 51°29' E 001°59'1615.7
2015-Feb-20 21:34N 51°41' E 002°15'52 8.1
2015-Feb-20 15:07N 52°11' E 003°25'711.7
2015-Feb-20 14:29N 52°07' E 003°36'1011.0
2015-Feb-20 13:33N 52°04' E 003°52'10 9.7
2015-Feb-20 12:33N 51°59' E 004°05'6 5.9
2015-Feb-20 11:33N 51°55' E 004°12'0 0.0
2015-Feb-20 10:30N 51°55' E 004°12'0 0.0
2015-Feb-20 09:24N 51°55' E 004°12'0 0.0
2015-Feb-20 08:30N 51°55' E 004°12'0 0.0
2015-Feb-20 07:33N 51°55' E 004°12'0 0.0
2015-Feb-20 06:33N 51°55' E 004°12'0 0.0
2015-Feb-20 05:33N 51°55' E 004°12'0 0.0
2015-Feb-20 04:30N 51°55' E 004°12'0 0.0
2015-Feb-20 03:33N 51°55' E 004°12'0 0.0
2015-Feb-20 02:30N 51°55' E 004°12'0 0.0
2015-Feb-20 01:30N 51°55' E 004°12'0 0.0
2015-Feb-20 00:33N 51°55' E 004°12'0 0.0
2015-Feb-19 23:33N 51°55' E 004°12'0 0.0
2015-Feb-19 22:33N 51°55' E 004°12'0 0.0
2015-Feb-19 21:33N 51°55' E 004°12'0 0.0
2015-Feb-19 20:33N 51°55' E 004°12'0 0.0
2015-Feb-19 19:33N 51°55' E 004°12'0 0.0
2015-Feb-19 18:33N 51°55' E 004°12'0 0.0
2015-Feb-19 17:33N 51°55' E 004°12'0 0.0
2015-Feb-19 16:15N 51°55' E 004°12'0 0.0
2015-Feb-19 15:30N 51°55' E 004°12'0 0.0
2015-Feb-19 14:33N 51°55' E 004°12'0 0.0
2015-Feb-19 13:27N 51°55' E 004°12'0 0.0
2015-Feb-19 12:33N 51°55' E 004°12'0 0.0
2015-Feb-19 11:27N 51°55' E 004°12'0 0.0
2015-Feb-19 10:30N 51°55' E 004°12'0 0.0
2015-Feb-19 09:30N 51°55' E 004°12'0 0.0
2015-Feb-19 08:33N 51°55' E 004°12'4 4.1
2015-Feb-19 07:33N 51°58' E 004°07'1010.2
2015-Feb-19 06:33N 51°60' E 003°51'1110.6
2015-Feb-19 05:33N 51°57' E 003°35'1211.6
2015-Feb-19 04:33N 51°56' E 003°16'4 3.7
2015-Feb-19 03:31N 51°56' E 003°10'0 0.1
2015-Feb-19 02:30N 51°56' E 003°10'0 0.1
2015-Feb-19 01:32N 51°56' E 003°10'0 0.0
2015-Feb-18 23:14N 51°56' E 003°10'0 0.2
2015-Feb-18 22:32N 51°56' E 003°09'0 0.0
2015-Feb-18 21:11N 51°56' E 003°09'0 0.0
2015-Feb-18 20:20N 51°56' E 003°09'0 0.1
2015-Feb-18 19:29N 51°56' E 003°09'0 0.1
2015-Feb-18 18:32N 51°56' E 003°09'0 0.2
2015-Feb-18 17:26N 51°56' E 003°10'0 0.0
2015-Feb-18 16:29N 51°56' E 003°10'0 0.0
2015-Feb-18 15:32N 51°56' E 003°10'0 0.1
2015-Feb-18 14:32N 51°56' E 003°10'0 0.0
2015-Feb-18 09:16N 51°56' E 003°09'0 0.0
2015-Feb-18 08:31N 51°56' E 003°09'0 0.0
2015-Feb-18 07:31N 51°56' E 003°09'0 0.1
2015-Feb-18 06:19N 51°56' E 003°10'0 0.2
2015-Feb-18 05:31N 51°56' E 003°09'0 0.1
2015-Feb-18 04:31N 51°56' E 003°10'0 0.0
2015-Feb-18 03:19N 51°56' E 003°10'0 0.0
2015-Feb-17 21:07N 51°56' E 003°10'0 0.0
2015-Feb-17 17:22N 51°56' E 003°09'0 0.0
2015-Feb-17 07:07N 51°56' E 003°10'0 0.0
2015-Feb-16 19:07N 51°56' E 003°10'26 3.0
2015-Feb-16 10:33N 51°42' E 002°33'1313.1
2015-Feb-16 09:33N 51°33' E 002°19'1212.2
2015-Feb-16 08:32N 51°23' E 002°08'1111.2
2015-Feb-16 07:33N 51°13' E 001°60'1312.5
2015-Feb-16 06:33N 51°06' E 001°43'1310.8
2015-Feb-16 05:22N 50°56' E 001°30'1211.0
2015-Feb-16 04:19N 50°45' E 001°25'910.8
2015-Feb-16 03:31N 50°38' E 001°16'1110.9
2015-Feb-16 02:33N 50°32' E 001°02'1110.8
2015-Feb-16 01:31N 50°28' E 000°46'255 6.2
2015-Feb-14 08:32N 47°17' W 003°31'  

Dump ship's entire track history